Rubikon9 — OMFJ — position and weather

sailwx.info

Track history (hours):
 
Tides and Currents Weather Stations Pressure Air Temp Water Temp Dewpoint Dewpoint Depression Visibility Wind Speed Wind Dir Waves Ship Positions

Rubikon9

Last reported at 2018-Apr-20 01:10 UTC. Time now 2018-Apr-24 12:50 UTC.
Position N 43°51' E 023°27'.

Length 109 m; draft 0.3 m.

Type: Tanker. MMSI: 267210081.

Date/timePositionNaut miles runAvg speedWind from/ knotsBaromVisibWave heightAir tempDewpointWater temp
2018-Apr-20 01:10N 43°51' E 023°27'1 7.9
2018-Apr-20 01:00N 43°51' E 023°26'4 8.1
2018-Apr-20 00:31N 43°51' E 023°20'4 7.7
2018-Apr-20 00:00N 43°50' E 023°15'4 8.1
2018-Apr-19 23:29N 43°49' E 023°09'4 7.9
2018-Apr-19 23:00N 43°48' E 023°04'4 7.9
2018-Apr-19 22:30N 43°49' E 022°59'4 8.0
2018-Apr-19 22:00N 43°50' E 022°53'4 7.4
2018-Apr-19 21:30N 43°53' E 022°50'4 7.6
2018-Apr-19 21:00N 43°56' E 022°52'4 7.5
2018-Apr-19 20:29N 43°60' E 022°55'4 8.2
2018-Apr-19 20:00N 44°01' E 023°00'4 7.8
2018-Apr-19 19:30N 44°04' E 023°03'4 7.7
2018-Apr-19 19:00N 44°06' E 022°58'4 7.7
2018-Apr-19 18:30N 44°07' E 022°53'4 8.2
2018-Apr-19 18:00N 44°09' E 022°48'4 8.5
2018-Apr-19 17:30N 44°12' E 022°44'3 6.6
2018-Apr-19 17:00N 44°15' E 022°41'3 7.0
2018-Apr-19 16:31N 44°18' E 022°38'1 1.2
2018-Apr-19 16:01N 44°17' E 022°37'0 0.0
2018-Apr-19 15:31N 44°17' E 022°37'0 0.7
2018-Apr-19 15:01N 44°17' E 022°37'0 0.4
2018-Apr-19 14:31N 44°17' E 022°38'0 0.0
2018-Apr-19 14:01N 44°17' E 022°38'0 1.0
2018-Apr-19 13:31N 44°17' E 022°37'0 0.0
2018-Apr-19 13:01N 44°17' E 022°37'0 0.2
2018-Apr-19 12:30N 44°17' E 022°37'2 4.6
2018-Apr-19 12:01N 44°18' E 022°34'0 0.6
2018-Apr-19 11:31N 44°18' E 022°34'3 6.6
2018-Apr-19 11:01N 44°21' E 022°31'4 7.3
2018-Apr-19 10:30N 44°25' E 022°30'4 7.2
2018-Apr-19 10:01N 44°28' E 022°27'3 5.6
2018-Apr-19 09:30N 44°28' E 022°31'3 6.5
2018-Apr-19 09:00N 44°31' E 022°34'3 6.5
2018-Apr-19 08:30N 44°33' E 022°37'4 7.5
2018-Apr-19 08:00N 44°31' E 022°42'1841551.5
2018-Apr-19 07:53N 45°54' E 018°50'185483.4
2018-Apr-19 07:30N 44°34' E 022°45'184165351.5
2018-Apr-19 07:30N 45°52' E 018°50'180362.1
2018-Apr-19 07:01N 44°37' E 022°42'17849413.9
2018-Apr-19 07:00N 45°51' E 018°52'175352.0
2018-Apr-19 06:31N 44°37' E 022°37'4 8.2
2018-Apr-19 06:01N 44°40' E 022°32'171621.4
2018-Apr-19 05:44N 45°51' E 018°52'170755.9
2018-Apr-19 05:31N 44°40' E 022°32'17024517.7
2018-Apr-19 05:30N 45°51' E 018°51'170345.0
2018-Apr-19 05:01N 44°40' E 022°31'170610791.4
2018-Apr-19 05:00N 45°48' E 018°51'170339.4
2018-Apr-19 04:30N 44°40' E 022°31'168151073.0
2018-Apr-19 04:30N 45°47' E 018°53'2 4.3
2018-Apr-19 04:00N 45°45' E 018°54'2 3.4
2018-Apr-19 03:30N 45°43' E 018°54'163117199.4
2018-Apr-19 03:30N 44°42' E 022°28'163326.3
2018-Apr-19 03:00N 45°43' E 018°54'16096237.0
2018-Apr-19 03:00N 44°42' E 022°24'160321.9
2018-Apr-19 02:30N 45°43' E 018°54'158113900.8
2018-Apr-19 02:30N 44°40' E 022°20'158317.3
2018-Apr-19 02:00N 45°43' E 018°54'0 0.0
2018-Apr-19 01:30N 45°43' E 018°54'157734.6
2018-Apr-19 01:18N 44°34' E 022°14'157549.7
2018-Apr-19 01:00N 45°43' E 018°54'157813.5
2018-Apr-19 00:49N 44°31' E 022°12'157512.8
2018-Apr-19 00:30N 45°43' E 018°54'158567038.3
2018-Apr-19 00:30N 44°29' E 022°11'158315.2
2018-Apr-19 00:00N 45°43' E 018°54'154556013.9
2018-Apr-19 00:00N 44°29' E 022°06'154309.1
2018-Apr-18 23:30N 45°43' E 018°54'15145343.1
2018-Apr-18 23:30N 44°32' E 022°03'151304.3
2018-Apr-18 23:00N 45°43' E 018°54'14976372.8
2018-Apr-18 23:00N 44°35' E 022°02'149298.2
2018-Apr-18 22:30N 45°43' E 018°54'0 0.0
2018-Apr-18 22:00N 45°43' E 018°54'0 0.0
2018-Apr-18 21:30N 45°43' E 018°54'0 0.0
2018-Apr-18 21:00N 45°43' E 018°54'0 0.0
2018-Apr-18 20:30N 45°43' E 018°54'0 0.0
2018-Apr-18 20:00N 45°43' E 018°54'128966.0
2018-Apr-18 19:53N 44°45' E 021°36'128347.8
2018-Apr-18 19:31N 45°43' E 018°54'0 0.0
2018-Apr-18 19:01N 45°43' E 018°54'1 1.2
2018-Apr-18 18:31N 45°43' E 018°54'124798.2
2018-Apr-18 18:21N 44°46' E 021°31'122354.0
2018-Apr-18 18:01N 45°41' E 018°56'12211263.8
2018-Apr-18 18:00N 44°46' E 021°31'121246.3
2018-Apr-18 17:31N 45°39' E 018°58'12115499.7
2018-Apr-18 17:30N 44°46' E 021°31'121245.9
2018-Apr-18 17:01N 45°38' E 018°56'12148395.7
2018-Apr-18 17:00N 44°46' E 021°31'121243.5
2018-Apr-18 16:30N 45°36' E 018°55'12116167.8
2018-Apr-18 16:30N 44°46' E 021°31'0 0.0
2018-Apr-18 16:00N 44°46' E 021°31'12172673.0
2018-Apr-18 16:00N 45°35' E 018°54'2 3.3
2018-Apr-18 15:31N 45°34' E 018°54'121108814.6
2018-Apr-18 15:30N 44°46' E 021°31'119238.4
2018-Apr-18 15:01N 45°33' E 018°56'1191321.5
2018-Apr-18 14:55N 44°46' E 021°31'117285.6
2018-Apr-18 14:31N 45°32' E 018°58'1171659.5
2018-Apr-18 14:26N 44°46' E 021°31'116270.5
2018-Apr-18 14:01N 45°33' E 019°01'11617432.3
2018-Apr-18 14:00N 44°46' E 021°31'115232.8
2018-Apr-18 13:31N 45°32' E 019°02'11521750.3
2018-Apr-18 13:30N 44°46' E 021°31'113228.3
2018-Apr-18 13:01N 45°32' E 019°05'11314018.2
2018-Apr-18 13:00N 44°46' E 021°31'111226.5
2018-Apr-18 12:31N 45°30' E 019°06'111133158.3
2018-Apr-18 12:30N 44°46' E 021°31'112224.0
2018-Apr-18 12:01N 45°29' E 019°04'1082703.0
2018-Apr-18 11:58N 44°46' E 021°25'110239.5
2018-Apr-18 11:31N 45°29' E 019°01'2 3.1
2018-Apr-18 11:01N 45°29' E 018°59'2 3.9
2018-Apr-18 10:30N 45°27' E 018°59'10292094.4
2018-Apr-18 10:30N 44°47' E 021°13'100201.4
2018-Apr-18 10:00N 45°25' E 019°02'99177462.5
2018-Apr-18 10:00N 44°44' E 021°08'4 7.8
2018-Apr-18 09:30N 44°43' E 021°03'961173.4
2018-Apr-18 09:25N 45°24' E 019°00'93228.5
2018-Apr-18 09:00N 44°42' E 020°58'9484671.8
2018-Apr-18 09:00N 45°23' E 018°58'94188.2
2018-Apr-18 08:30N 44°42' E 020°57'9216568.8
2018-Apr-18 08:30N 45°21' E 019°00'2 4.0
2018-Apr-18 07:57N 45°21' E 019°03'2 4.2
2018-Apr-18 07:28N 45°20' E 019°06'2 4.1
2018-Apr-18 07:00N 45°18' E 019°06'2 3.9
2018-Apr-18 06:30N 45°17' E 019°08'2 4.4
2018-Apr-18 05:59N 45°16' E 019°11'83251.6
2018-Apr-18 05:39N 44°42' E 020°57'0 0.1
2018-Apr-18 05:29N 44°42' E 020°57'0 0.0
2018-Apr-18 05:00N 44°42' E 020°57'77204.6
2018-Apr-18 04:38N 45°14' E 019°18'77629.9
2018-Apr-18 04:30N 44°42' E 020°57'7755327.5
2018-Apr-18 04:30N 45°14' E 019°19'2 3.5
2018-Apr-18 04:01N 45°14' E 019°21'7567682.0
2018-Apr-18 04:00N 44°42' E 020°57'73146.9
2018-Apr-18 03:31N 45°14' E 019°24'7365959.4
2018-Apr-18 03:30N 44°42' E 020°57'73146.1
2018-Apr-18 03:01N 45°14' E 019°25'0 0.0
2018-Apr-18 02:31N 45°14' E 019°25'739349.2
2018-Apr-18 02:30N 44°42' E 020°57'73147.8
2018-Apr-18 02:01N 45°14' E 019°25'7113539.8
2018-Apr-18 02:00N 44°40' E 020°54'71144.4
2018-Apr-18 01:31N 45°14' E 019°25'0 0.0
2018-Apr-18 01:01N 45°14' E 019°25'64450.2
2018-Apr-18 00:52N 44°42' E 020°43'64178.5
2018-Apr-18 00:31N 45°14' E 019°25'61765.5
2018-Apr-18 00:26N 44°44' E 020°40'61145.1
2018-Apr-18 00:01N 45°14' E 019°25'58209676.8
2018-Apr-18 00:00N 44°46' E 020°38'58116.6
2018-Apr-17 23:31N 45°14' E 019°25'576875.3
2018-Apr-17 23:30N 44°50' E 020°39'57116.6
2018-Apr-17 23:01N 45°14' E 019°25'548844.0
2018-Apr-17 23:00N 44°51' E 020°34'54109.4
2018-Apr-17 22:31N 45°14' E 019°25'51185272.4
2018-Apr-17 22:30N 44°50' E 020°29'4 7.6
2018-Apr-17 22:00N 44°51' E 020°24'48171669.8
2018-Apr-17 22:00N 45°14' E 019°25'1 1.5
2018-Apr-17 21:31N 45°14' E 019°26'44156934.9
2018-Apr-17 21:31N 44°54' E 020°21'4 7.6
2018-Apr-17 21:00N 44°57' E 020°18'3 6.4
2018-Apr-17 20:30N 44°60' E 020°20'3 6.2
2018-Apr-17 20:00N 45°03' E 020°21'4 7.6
2018-Apr-17 19:30N 45°06' E 020°18'4 7.4
2018-Apr-17 19:00N 45°09' E 020°16'26330.5
2018-Apr-17 18:56N 45°13' E 019°39'2355.8
2018-Apr-17 18:30N 45°11' E 020°12'2215670.3
2018-Apr-17 18:30N 45°14' E 019°41'2 4.4
2018-Apr-17 18:00N 45°14' E 019°44'166508.4
2018-Apr-17 18:00N 45°10' E 020°07'1428.2
2018-Apr-17 17:30N 45°13' E 019°47'1037469.4
2018-Apr-17 17:30N 45°10' E 020°02'917.0
2018-Apr-17 17:00N 45°14' E 019°50'517955.0
2018-Apr-17 17:00N 45°12' E 019°57'510.5
2018-Apr-17 16:31N 45°15' E 019°51'22642.2
2018-Apr-17 16:30N 45°15' E 019°55'1 1.8
2018-Apr-17 16:01N 45°15' E 019°53'25886.5
2018-Apr-17 16:00N 45°14' E 019°52'2 3.3
2018-Apr-17 15:31N 45°15' E 019°53'52570.9
2018-Apr-17 15:30N 45°13' E 019°47'611.1
2018-Apr-17 15:01N 45°15' E 019°54'92928.5
2018-Apr-17 15:00N 45°14' E 019°42'1020.2
2018-Apr-17 14:30N 45°13' E 019°56'1555.3
2018-Apr-17 14:14N 45°13' E 019°34'1777.8
2018-Apr-17 14:01N 45°11' E 019°58'18528.5
2018-Apr-17 13:58N 45°15' E 019°33'2043.4
2018-Apr-17 13:31N 45°10' E 020°01'24159.6
2018-Apr-17 13:21N 45°14' E 019°27'2776.2
2018-Apr-17 13:01N 45°10' E 020°05'2913067.8
2018-Apr-17 13:00N 45°14' E 019°24'3162.8
2018-Apr-17 12:30N 45°10' E 020°08'3511468.0
2018-Apr-17 12:30N 45°14' E 019°18'3774.7
2018-Apr-17 12:01N 45°11' E 020°11'411155.1
2018-Apr-17 11:58N 45°15' E 019°13'4393.1
2018-Apr-17 11:31N 45°10' E 020°14'4755860.7
2018-Apr-17 11:30N 45°17' E 019°08'3 6.8
2018-Apr-17 11:00N 45°20' E 019°06'51320.4
2018-Apr-17 10:51N 45°08' E 020°17'55162.0
2018-Apr-17 10:30N 45°21' E 019°01'5610607.8
2018-Apr-17 10:30N 45°06' E 020°18'58117.9
2018-Apr-17 10:00N 45°24' E 018°59'60396.7
2018-Apr-17 09:51N 45°04' E 020°20'1 4.3
2018-Apr-17 09:31N 45°03' E 020°21'61218374.8
2018-Apr-17 09:30N 45°26' E 019°01'62124.0
2018-Apr-17 09:01N 45°01' E 020°22'64231699.5
2018-Apr-17 09:00N 45°29' E 018°59'64127.1
2018-Apr-17 08:31N 44°60' E 020°20'619996.9
2018-Apr-17 08:30N 45°29' E 019°04'60121.8
2018-Apr-17 08:01N 44°59' E 020°18'6031088.2
2018-Apr-17 08:00N 45°31' E 019°05'62123.9
2018-Apr-17 07:31N 44°57' E 020°18'65116960.1
2018-Apr-17 07:30N 45°33' E 019°01'67134.0
2018-Apr-17 07:01N 44°55' E 020°20'69123920.1
2018-Apr-17 07:00N 45°32' E 018°57'3 6.8
2018-Apr-17 06:30N 45°34' E 018°53'7444545.6
2018-Apr-17 06:30N 44°53' E 020°21'75150.6
2018-Apr-17 06:00N 45°37' E 018°55'7725305.7
2018-Apr-17 06:00N 44°52' E 020°23'2 4.6
2018-Apr-17 05:30N 44°51' E 020°26'2 4.5
2018-Apr-17 05:00N 44°50' E 020°29'85305964.2
2018-Apr-17 05:00N 45°42' E 018°54'86173.1
2018-Apr-17 04:30N 44°50' E 020°32'89321374.5
2018-Apr-17 04:30N 45°46' E 018°53'90180.4
2018-Apr-17 04:00N 44°51' E 020°35'9383990.0
2018-Apr-17 04:00N 45°49' E 018°51'95190.0
2018-Apr-17 03:30N 44°51' E 020°38'9519084.1
2018-Apr-17 03:30N 45°50' E 018°52'0 0.0
2018-Apr-17 03:00N 45°50' E 018°52'95343569.2
2018-Apr-17 03:00N 44°51' E 020°38'95191.9
2018-Apr-17 02:30N 45°50' E 018°52'9531233.6
2018-Apr-17 02:30N 44°51' E 020°38'0 0.0
2018-Apr-17 02:00N 44°51' E 020°38'952021.0
2018-Apr-17 01:58N 45°50' E 018°52'0 0.0
2018-Apr-17 01:30N 45°50' E 018°52'95343569.2
2018-Apr-17 01:30N 44°51' E 020°38'0 0.0
2018-Apr-17 01:00N 44°51' E 020°38'9517179.1
2018-Apr-17 01:00N 45°50' E 018°52'95193.0
2018-Apr-17 00:30N 44°51' E 020°38'95343582.8
2018-Apr-17 00:30N 45°50' E 018°52'0 0.7
2018-Apr-17 00:00N 45°51' E 018°51'96344448.0
2018-Apr-17 00:00N 44°51' E 020°38'0 0.0
2018-Apr-16 23:30N 44°51' E 020°38'9812163.3
2018-Apr-16 23:30N 45°53' E 018°50'98199.2
2018-Apr-16 23:00N 44°51' E 020°38'0 0.0
2018-Apr-16 22:30N 44°51' E 020°38'0 0.0
2018-Apr-16 22:00N 44°51' E 020°38'0 0.0
2018-Apr-16 21:30N 44°51' E 020°38'0 0.0
2018-Apr-16 21:00N 44°51' E 020°38'0 0.1
2018-Apr-16 20:30N 44°51' E 020°38'0 0.0
2018-Apr-16 20:00N 44°51' E 020°38'0 0.8
2018-Apr-16 19:30N 44°51' E 020°38'3 5.1
2018-Apr-16 19:00N 44°48' E 020°38'3 5.7
2018-Apr-16 18:30N 44°45' E 020°38'3 5.4
2018-Apr-16 18:01N 44°44' E 020°41'3 5.5
2018-Apr-16 17:30N 44°41' E 020°43'3 5.6
2018-Apr-16 17:00N 44°40' E 020°47'3 5.1
2018-Apr-16 16:30N 44°39' E 020°50'3 5.4
2018-Apr-16 16:00N 44°40' E 020°54'1 2.0
2018-Apr-16 15:30N 44°40' E 020°55'0 0.0
2018-Apr-16 15:01N 44°40' E 020°55'0 0.0
2018-Apr-16 14:31N 44°40' E 020°55'0 0.0
2018-Apr-16 14:01N 44°40' E 020°55'0 0.0
2018-Apr-16 13:31N 44°40' E 020°55'0 0.0
2018-Apr-16 13:00N 44°40' E 020°55'0 0.0
2018-Apr-16 12:30N 44°40' E 020°55'2 3.6
2018-Apr-16 12:00N 44°41' E 020°57'0 0.6
2018-Apr-16 11:30N 44°42' E 020°57'0 0.0
2018-Apr-16 11:00N 44°42' E 020°57'0 0.0
2018-Apr-16 10:31N 44°42' E 020°57'0 0.0
2018-Apr-16 10:00N 44°42' E 020°57'0 0.0
2018-Apr-16 09:31N 44°42' E 020°57'0 0.0
2018-Apr-16 09:00N 44°42' E 020°57'176447.7
2018-Apr-16 08:37N 47°16' E 018°55'1761712.2
2018-Apr-16 08:30N 44°42' E 020°57'1775911.4
2018-Apr-16 08:29N 47°17' E 018°55'177376.2
2018-Apr-16 08:00N 44°42' E 020°57'0 0.0
2018-Apr-16 07:31N 44°42' E 020°57'17758.7
2018-Apr-16 04:29N 47°17' E 018°55'17724.5
2018-Apr-15 21:14N 44°42' E 020°57'0 0.0
2018-Apr-15 21:00N 44°42' E 020°57'0 0.0
2018-Apr-15 20:02N 44°42' E 020°57'0 0.0
2018-Apr-15 20:00N 44°42' E 020°57'0 0.0
2018-Apr-15 19:30N 44°42' E 020°57'0 0.0
2018-Apr-15 19:00N 44°42' E 020°57'0 0.0
2018-Apr-15 18:30N 44°42' E 020°57'0 0.0
2018-Apr-15 18:00N 44°42' E 020°57'0 0.0
2018-Apr-15 17:30N 44°42' E 020°57'0 0.0
2018-Apr-15 17:00N 44°42' E 020°57'0 0.0
2018-Apr-15 16:30N 44°42' E 020°57'0 0.0
2018-Apr-15 16:01N 44°42' E 020°57'0 0.0
2018-Apr-15 15:30N 44°42' E 020°57'0 0.0
2018-Apr-15 15:00N 44°42' E 020°57'0 0.0
2018-Apr-15 14:30N 44°42' E 020°57'0 0.0
2018-Apr-15 14:00N 44°42' E 020°57'0 0.0
2018-Apr-15 13:31N 44°42' E 020°57'0 0.0
2018-Apr-15 13:00N 44°42' E 020°57'0 0.0
2018-Apr-15 12:31N 44°42' E 020°57'3 5.8
2018-Apr-15 12:01N 44°40' E 020°54'4 8.6
2018-Apr-15 11:30N 44°39' E 020°48'4 8.3
2018-Apr-15 11:00N 44°41' E 020°43'4 8.4
2018-Apr-15 10:31N 44°45' E 020°39'4 7.7
2018-Apr-15 10:01N 44°48' E 020°38'3 5.0
2018-Apr-15 09:30N 44°51' E 020°38'1 2.1
2018-Apr-15 09:00N 44°51' E 020°36'3 6.6
2018-Apr-15 08:30N 44°50' E 020°32'1 1.6
2018-Apr-15 08:00N 44°49' E 020°31'0 0.0
2018-Apr-15 07:31N 44°49' E 020°31'0 0.0
2018-Apr-15 07:00N 44°49' E 020°31'0 0.0
2018-Apr-15 06:30N 44°49' E 020°31'0 0.0
2018-Apr-15 06:00N 44°49' E 020°31'0 0.0
2018-Apr-15 05:30N 44°49' E 020°31'0 0.0
2018-Apr-15 05:01N 44°49' E 020°31'0 0.0
2018-Apr-15 04:30N 44°49' E 020°31'162342.1
2018-Apr-15 04:02N 47°17' E 018°55'1625725.5
2018-Apr-15 04:00N 44°49' E 020°31'1621333.3
2018-Apr-15 03:53N 47°17' E 018°55'162431.6
2018-Apr-15 03:30N 44°49' E 020°31'162592.9
2018-Apr-15 03:14N 47°17' E 018°55'162717.4
2018-Apr-15 03:00N 44°49' E 020°31'162929.9
2018-Apr-15 02:50N 47°17' E 018°55'162498.3
2018-Apr-15 02:30N 44°49' E 020°31'0 0.0
2018-Apr-15 02:00N 44°49' E 020°31'0 0.0
2018-Apr-15 01:30N 44°49' E 020°31'0 0.0
2018-Apr-15 01:00N 44°49' E 020°31'0 0.0
2018-Apr-15 00:30N 44°49' E 020°31'0 0.0
2018-Apr-15 00:00N 44°49' E 020°31'0 0.0
2018-Apr-14 23:30N 44°49' E 020°31'0 0.0
2018-Apr-14 23:00N 44°49' E 020°31'0 0.0
2018-Apr-14 22:30N 44°49' E 020°31'0 0.0
2018-Apr-14 22:00N 44°49' E 020°31'0 0.0
2018-Apr-14 21:30N 44°49' E 020°31'0 0.0
2018-Apr-14 21:00N 44°49' E 020°31'0 0.0
2018-Apr-14 20:30N 44°49' E 020°31'0 0.0
2018-Apr-14 20:00N 44°49' E 020°31'0 0.0
2018-Apr-14 19:30N 44°49' E 020°31'0 0.0
2018-Apr-14 19:00N 44°49' E 020°31'0 0.0
2018-Apr-14 18:30N 44°49' E 020°31'0 0.0
2018-Apr-14 18:01N 44°49' E 020°31'0 0.0
2018-Apr-14 17:30N 44°49' E 020°31'0 0.0
2018-Apr-14 17:00N 44°49' E 020°31'0 0.0
2018-Apr-14 16:30N 44°49' E 020°31'0 0.0
2018-Apr-14 16:00N 44°49' E 020°31'0 0.0
2018-Apr-14 15:30N 44°49' E 020°31'0 0.0
2018-Apr-14 15:00N 44°49' E 020°31'0 0.0
2018-Apr-14 14:30N 44°49' E 020°31'0 0.0
2018-Apr-14 14:00N 44°49' E 020°31'0 0.0
2018-Apr-14 13:30N 44°49' E 020°31'0 0.0
2018-Apr-14 13:00N 44°49' E 020°31'0 0.0
2018-Apr-14 12:30N 44°49' E 020°31'0 0.0
2018-Apr-14 12:00N 44°49' E 020°31'0 0.0
2018-Apr-14 11:30N 44°49' E 020°31'0 0.0
2018-Apr-14 11:00N 44°49' E 020°31'0 0.0
2018-Apr-14 10:30N 44°49' E 020°31'0 0.0
2018-Apr-14 10:00N 44°49' E 020°31'0 0.0
2018-Apr-14 09:30N 44°49' E 020°31'0 0.1
2018-Apr-14 09:00N 44°50' E 020°31'2 4.1
2018-Apr-14 08:30N 44°50' E 020°28'0 0.4
2018-Apr-14 08:00N 44°50' E 020°28'0 0.0
2018-Apr-14 07:30N 44°50' E 020°28'0 0.1
2018-Apr-14 07:00N 44°50' E 020°28'0 0.4
2018-Apr-14 06:30N 44°50' E 020°29'0 0.1
2018-Apr-14 06:00N 44°50' E 020°29'1 1.3
2018-Apr-14 05:30N 44°50' E 020°28'3 5.5
2018-Apr-14 05:00N 44°51' E 020°24'3 6.5
2018-Apr-14 04:30N 44°54' E 020°21'3 6.8
2018-Apr-14 04:00N 44°56' E 020°18'3 5.9
2018-Apr-14 03:30N 44°59' E 020°18'0 0.0
2018-Apr-14 03:00N 44°59' E 020°18'0 0.0
2018-Apr-14 02:31N 44°59' E 020°18'0 0.0
2018-Apr-14 02:00N 44°59' E 020°18'0 0.0
2018-Apr-14 01:30N 44°59' E 020°18'0 0.0
2018-Apr-14 01:01N 44°59' E 020°18'0 0.0
2018-Apr-14 00:31N 44°59' E 020°18'0 0.0
2018-Apr-14 00:00N 44°59' E 020°18'0 0.0
2018-Apr-13 23:30N 44°59' E 020°18'0 0.0
2018-Apr-13 23:01N 44°59' E 020°18'0 0.6
2018-Apr-13 22:30N 44°60' E 020°18'3 6.0
2018-Apr-13 22:00N 45°01' E 020°22'3 6.5
2018-Apr-13 21:30N 45°04' E 020°21'4 6.9
2018-Apr-13 20:59N 45°07' E 020°18'3 6.4
2018-Apr-13 20:30N 45°09' E 020°15'2 4.8
2018-Apr-13 20:00N 45°11' E 020°12'3 5.4
2018-Apr-13 19:30N 45°10' E 020°08'3 6.5
2018-Apr-13 19:00N 45°10' E 020°04'3 6.3
2018-Apr-13 18:30N 45°11' E 019°59'3 6.2
2018-Apr-13 18:01N 45°13' E 019°56'3 6.3
2018-Apr-13 17:31N 45°15' E 019°54'2 4.2
2018-Apr-13 17:01N 45°14' E 019°51'3 6.1
2018-Apr-13 16:30N 45°13' E 019°47'3 6.4
2018-Apr-13 16:01N 45°14' E 019°43'11 5.5
2018-Apr-13 14:04N 45°14' E 019°27'1 6.6
2018-Apr-13 14:00N 45°14' E 019°27'3 6.9
2018-Apr-13 13:30N 45°14' E 019°22'3 6.7
2018-Apr-13 13:00N 45°14' E 019°17'4 7.1
2018-Apr-13 12:29N 45°16' E 019°12'3 6.8
2018-Apr-13 12:00N 45°17' E 019°08'3 6.1
2018-Apr-13 11:30N 45°20' E 019°06'3 6.4
2018-Apr-13 11:00N 45°21' E 019°02'3 6.7
2018-Apr-13 10:30N 45°23' E 018°58'7 4.7
2018-Apr-13 09:01N 45°30' E 019°01'3 6.3
2018-Apr-13 08:31N 45°29' E 019°05'3 5.3
2018-Apr-13 08:01N 45°32' E 019°04'3 5.5
2018-Apr-13 07:31N 45°33' E 019°01'3 6.3
2018-Apr-13 07:01N 45°32' E 018°57'3 6.3
2018-Apr-13 06:30N 45°34' E 018°53'103658.8
2018-Apr-13 06:21N 47°17' E 018°55'101293.7
2018-Apr-13 06:01N 45°37' E 018°54'10112936.2
2018-Apr-13 06:00N 47°17' E 018°55'98199.8
2018-Apr-13 05:31N 45°39' E 018°57'3 5.0
2018-Apr-13 05:01N 45°41' E 018°56'3 6.5
2018-Apr-13 04:31N 45°44' E 018°54'3 6.2
2018-Apr-13 04:00N 45°47' E 018°52'3 6.1
2018-Apr-13 03:30N 45°50' E 018°51'0 0.7
2018-Apr-13 03:00N 45°51' E 018°52'0 0.0
2018-Apr-13 02:28N 45°51' E 018°52'0 0.0
2018-Apr-13 02:01N 45°51' E 018°52'0 0.0
2018-Apr-13 01:30N 45°51' E 018°52'0 0.0
2018-Apr-13 00:57N 45°51' E 018°52'0 0.0
2018-Apr-13 00:24N 45°51' E 018°52'0 0.0
2018-Apr-12 23:57N 45°51' E 018°52'0 0.0
2018-Apr-12 23:30N 45°51' E 018°52'0 0.0
2018-Apr-12 22:58N 45°51' E 018°52'0 0.0
2018-Apr-12 22:26N 45°51' E 018°52'0 0.0
2018-Apr-12 21:47N 45°51' E 018°52'0 0.0
2018-Apr-12 21:25N 45°51' E 018°52'0 0.0
2018-Apr-12 21:00N 45°51' E 018°52'0 0.0
2018-Apr-12 20:28N 45°51' E 018°52'0 0.0
2018-Apr-12 19:58N 45°51' E 018°52'0 0.0
2018-Apr-12 19:29N 45°51' E 018°52'0 0.0
2018-Apr-12 19:00N 45°51' E 018°52'0 0.9
2018-Apr-12 18:30N 45°51' E 018°51'8713.9
2018-Apr-12 12:16N 47°17' E 018°55'0 0.0
2018-Apr-12 04:06N 47°17' E 018°55'0 0.0
2018-Apr-11 18:24N 47°17' E 018°55'79 3.6
2018-Apr-10 20:15N 45°59' E 018°44'2 5.8
2018-Apr-10 19:59N 45°58' E 018°45'3 5.7
2018-Apr-10 19:30N 45°55' E 018°47'3 5.5
2018-Apr-10 18:56N 45°53' E 018°50'2 5.1
2018-Apr-10 18:30N 45°51' E 018°51'0 0.7
2018-Apr-10 17:57N 45°50' E 018°52'0 0.0
2018-Apr-10 17:29N 45°50' E 018°52'0 0.0
2018-Apr-10 16:53N 45°50' E 018°52'0 0.0
2018-Apr-10 16:28N 45°50' E 018°52'0 0.0
2018-Apr-10 15:57N 45°50' E 018°52'2 4.2
2018-Apr-10 15:30N 45°49' E 018°51'2 4.7
2018-Apr-10 15:00N 45°47' E 018°53'3 5.1
2018-Apr-10 14:30N 45°44' E 018°54'3 5.4
2018-Apr-10 14:00N 45°42' E 018°55'3 5.4
2018-Apr-10 13:30N 45°40' E 018°58'3 5.1
2018-Apr-10 13:00N 45°38' E 018°56'2 3.2
2018-Apr-10 12:30N 45°37' E 018°54'3 5.0
2018-Apr-10 12:01N 45°35' E 018°53'2 4.8
2018-Apr-10 11:31N 45°33' E 018°56'2 4.8
2018-Apr-10 11:00N 45°32' E 018°59'2 4.0
2018-Apr-10 10:31N 45°33' E 019°02'2 4.6
2018-Apr-10 10:01N 45°32' E 019°04'2 4.4
2018-Apr-10 09:31N 45°30' E 019°06'3 5.3
2018-Apr-10 09:01N 45°29' E 019°02'2 4.0
2018-Apr-10 08:31N 45°29' E 018°59'3 5.3
2018-Apr-10 08:01N 45°26' E 018°60'2 4.5
2018-Apr-10 07:31N 45°24' E 019°02'2 5.0
2018-Apr-10 07:01N 45°23' E 018°58'3 5.0
2018-Apr-10 06:30N 45°21' E 019°00'3 5.3
2018-Apr-10 06:01N 45°21' E 019°04'2 4.6
2018-Apr-10 05:31N 45°19' E 019°06'2 4.0
2018-Apr-10 05:00N 45°17' E 019°08'2 4.9
2018-Apr-10 04:30N 45°16' E 019°11'3 5.1
2018-Apr-10 04:00N 45°15' E 019°14'3 5.1
2018-Apr-10 03:30N 45°14' E 019°18'3 5.5
2018-Apr-10 03:00N 45°14' E 019°21'3 5.3
2018-Apr-10 02:30N 45°14' E 019°25'3 5.4
2018-Apr-10 01:52N 45°15' E 019°30'2 5.3
2018-Apr-10 01:30N 45°15' E 019°33'  
Track history (hours):
 
Tides and Currents Weather Stations Pressure Air Temp Water Temp Dewpoint Dewpoint Depression Visibility Wind Speed Wind Dir Waves Ship Positions

Rubikon9

Last reported at 2018-Apr-20 01:10 UTC. Time now 2018-Apr-24 12:50 UTC.
Position N 43°51' E 023°27'.

Length 109 m; draft 0.3 m.

Type: Tanker. MMSI: 267210081.

Date/timePositionNaut miles runAvg speedWind from/ knotsBaromVisibWave heightAir tempDewpointWater temp
2018-Apr-20 01:10N 43°51' E 023°27'1 7.9
2018-Apr-20 01:00N 43°51' E 023°26'4 8.1
2018-Apr-20 00:31N 43°51' E 023°20'4 7.7
2018-Apr-20 00:00N 43°50' E 023°15'4 8.1
2018-Apr-19 23:29N 43°49' E 023°09'4 7.9
2018-Apr-19 23:00N 43°48' E 023°04'4 7.9
2018-Apr-19 22:30N 43°49' E 022°59'4 8.0
2018-Apr-19 22:00N 43°50' E 022°53'4 7.4
2018-Apr-19 21:30N 43°53' E 022°50'4 7.6
2018-Apr-19 21:00N 43°56' E 022°52'4 7.5
2018-Apr-19 20:29N 43°60' E 022°55'4 8.2
2018-Apr-19 20:00N 44°01' E 023°00'4 7.8
2018-Apr-19 19:30N 44°04' E 023°03'4 7.7
2018-Apr-19 19:00N 44°06' E 022°58'4 7.7
2018-Apr-19 18:30N 44°07' E 022°53'4 8.2
2018-Apr-19 18:00N 44°09' E 022°48'4 8.5
2018-Apr-19 17:30N 44°12' E 022°44'3 6.6
2018-Apr-19 17:00N 44°15' E 022°41'3 7.0
2018-Apr-19 16:31N 44°18' E 022°38'1 1.2
2018-Apr-19 16:01N 44°17' E 022°37'0 0.0
2018-Apr-19 15:31N 44°17' E 022°37'0 0.7
2018-Apr-19 15:01N 44°17' E 022°37'0 0.4
2018-Apr-19 14:31N 44°17' E 022°38'0 0.0
2018-Apr-19 14:01N 44°17' E 022°38'0 1.0
2018-Apr-19 13:31N 44°17' E 022°37'0 0.0
2018-Apr-19 13:01N 44°17' E 022°37'0 0.2
2018-Apr-19 12:30N 44°17' E 022°37'2 4.6
2018-Apr-19 12:01N 44°18' E 022°34'0 0.6
2018-Apr-19 11:31N 44°18' E 022°34'3 6.6
2018-Apr-19 11:01N 44°21' E 022°31'4 7.3
2018-Apr-19 10:30N 44°25' E 022°30'4 7.2
2018-Apr-19 10:01N 44°28' E 022°27'3 5.6
2018-Apr-19 09:30N 44°28' E 022°31'3 6.5
2018-Apr-19 09:00N 44°31' E 022°34'3 6.5
2018-Apr-19 08:30N 44°33' E 022°37'4 7.5
2018-Apr-19 08:00N 44°31' E 022°42'1841551.5
2018-Apr-19 07:53N 45°54' E 018°50'185483.4
2018-Apr-19 07:30N 44°34' E 022°45'184165351.5
2018-Apr-19 07:30N 45°52' E 018°50'180362.1
2018-Apr-19 07:01N 44°37' E 022°42'17849413.9
2018-Apr-19 07:00N 45°51' E 018°52'175352.0
2018-Apr-19 06:31N 44°37' E 022°37'4 8.2
2018-Apr-19 06:01N 44°40' E 022°32'171621.4
2018-Apr-19 05:44N 45°51' E 018°52'170755.9
2018-Apr-19 05:31N 44°40' E 022°32'17024517.7
2018-Apr-19 05:30N 45°51' E 018°51'170345.0
2018-Apr-19 05:01N 44°40' E 022°31'170610791.4
2018-Apr-19 05:00N 45°48' E 018°51'170339.4
2018-Apr-19 04:30N 44°40' E 022°31'168151073.0
2018-Apr-19 04:30N 45°47' E 018°53'2 4.3
2018-Apr-19 04:00N 45°45' E 018°54'2 3.4
2018-Apr-19 03:30N 45°43' E 018°54'163117199.4
2018-Apr-19 03:30N 44°42' E 022°28'163326.3
2018-Apr-19 03:00N 45°43' E 018°54'16096237.0
2018-Apr-19 03:00N 44°42' E 022°24'160321.9
2018-Apr-19 02:30N 45°43' E 018°54'158113900.8
2018-Apr-19 02:30N 44°40' E 022°20'158317.3
2018-Apr-19 02:00N 45°43' E 018°54'0 0.0
2018-Apr-19 01:30N 45°43' E 018°54'157734.6
2018-Apr-19 01:18N 44°34' E 022°14'157549.7
2018-Apr-19 01:00N 45°43' E 018°54'157813.5
2018-Apr-19 00:49N 44°31' E 022°12'157512.8
2018-Apr-19 00:30N 45°43' E 018°54'158567038.3
2018-Apr-19 00:30N 44°29' E 022°11'158315.2
2018-Apr-19 00:00N 45°43' E 018°54'154556013.9
2018-Apr-19 00:00N 44°29' E 022°06'154309.1
2018-Apr-18 23:30N 45°43' E 018°54'15145343.1
2018-Apr-18 23:30N 44°32' E 022°03'151304.3
2018-Apr-18 23:00N 45°43' E 018°54'14976372.8
2018-Apr-18 23:00N 44°35' E 022°02'149298.2
2018-Apr-18 22:30N 45°43' E 018°54'0 0.0
2018-Apr-18 22:00N 45°43' E 018°54'0 0.0
2018-Apr-18 21:30N 45°43' E 018°54'0 0.0
2018-Apr-18 21:00N 45°43' E 018°54'0 0.0
2018-Apr-18 20:30N 45°43' E 018°54'0 0.0
2018-Apr-18 20:00N 45°43' E 018°54'128966.0
2018-Apr-18 19:53N 44°45' E 021°36'128347.8
2018-Apr-18 19:31N 45°43' E 018°54'0 0.0
2018-Apr-18 19:01N 45°43' E 018°54'1 1.2
2018-Apr-18 18:31N 45°43' E 018°54'124798.2
2018-Apr-18 18:21N 44°46' E 021°31'122354.0
2018-Apr-18 18:01N 45°41' E 018°56'12211263.8
2018-Apr-18 18:00N 44°46' E 021°31'121246.3
2018-Apr-18 17:31N 45°39' E 018°58'12115499.7
2018-Apr-18 17:30N 44°46' E 021°31'121245.9
2018-Apr-18 17:01N 45°38' E 018°56'12148395.7
2018-Apr-18 17:00N 44°46' E 021°31'121243.5
2018-Apr-18 16:30N 45°36' E 018°55'12116167.8
2018-Apr-18 16:30N 44°46' E 021°31'0 0.0
2018-Apr-18 16:00N 44°46' E 021°31'12172673.0
2018-Apr-18 16:00N 45°35' E 018°54'2 3.3
2018-Apr-18 15:31N 45°34' E 018°54'121108814.6
2018-Apr-18 15:30N 44°46' E 021°31'119238.4
2018-Apr-18 15:01N 45°33' E 018°56'1191321.5
2018-Apr-18 14:55N 44°46' E 021°31'117285.6
2018-Apr-18 14:31N 45°32' E 018°58'1171659.5
2018-Apr-18 14:26N 44°46' E 021°31'116270.5
2018-Apr-18 14:01N 45°33' E 019°01'11617432.3
2018-Apr-18 14:00N 44°46' E 021°31'115232.8
2018-Apr-18 13:31N 45°32' E 019°02'11521750.3
2018-Apr-18 13:30N 44°46' E 021°31'113228.3
2018-Apr-18 13:01N 45°32' E 019°05'11314018.2
2018-Apr-18 13:00N 44°46' E 021°31'111226.5
2018-Apr-18 12:31N 45°30' E 019°06'111133158.3
2018-Apr-18 12:30N 44°46' E 021°31'112224.0
2018-Apr-18 12:01N 45°29' E 019°04'1082703.0
2018-Apr-18 11:58N 44°46' E 021°25'110239.5
2018-Apr-18 11:31N 45°29' E 019°01'2 3.1
2018-Apr-18 11:01N 45°29' E 018°59'2 3.9
2018-Apr-18 10:30N 45°27' E 018°59'10292094.4
2018-Apr-18 10:30N 44°47' E 021°13'100201.4
2018-Apr-18 10:00N 45°25' E 019°02'99177462.5
2018-Apr-18 10:00N 44°44' E 021°08'4 7.8
2018-Apr-18 09:30N 44°43' E 021°03'961173.4
2018-Apr-18 09:25N 45°24' E 019°00'93228.5
2018-Apr-18 09:00N 44°42' E 020°58'9484671.8
2018-Apr-18 09:00N 45°23' E 018°58'94188.2
2018-Apr-18 08:30N 44°42' E 020°57'9216568.8
2018-Apr-18 08:30N 45°21' E 019°00'2 4.0
2018-Apr-18 07:57N 45°21' E 019°03'2 4.2
2018-Apr-18 07:28N 45°20' E 019°06'2 4.1
2018-Apr-18 07:00N 45°18' E 019°06'2 3.9
2018-Apr-18 06:30N 45°17' E 019°08'2 4.4
2018-Apr-18 05:59N 45°16' E 019°11'83251.6
2018-Apr-18 05:39N 44°42' E 020°57'0 0.1
2018-Apr-18 05:29N 44°42' E 020°57'0 0.0
2018-Apr-18 05:00N 44°42' E 020°57'77204.6
2018-Apr-18 04:38N 45°14' E 019°18'77629.9
2018-Apr-18 04:30N 44°42' E 020°57'7755327.5
2018-Apr-18 04:30N 45°14' E 019°19'2 3.5
2018-Apr-18 04:01N 45°14' E 019°21'7567682.0
2018-Apr-18 04:00N 44°42' E 020°57'73146.9
2018-Apr-18 03:31N 45°14' E 019°24'7365959.4
2018-Apr-18 03:30N 44°42' E 020°57'73146.1
2018-Apr-18 03:01N 45°14' E 019°25'0 0.0
2018-Apr-18 02:31N 45°14' E 019°25'739349.2
2018-Apr-18 02:30N 44°42' E 020°57'73147.8
2018-Apr-18 02:01N 45°14' E 019°25'7113539.8
2018-Apr-18 02:00N 44°40' E 020°54'71144.4
2018-Apr-18 01:31N 45°14' E 019°25'0 0.0
2018-Apr-18 01:01N 45°14' E 019°25'64450.2
2018-Apr-18 00:52N 44°42' E 020°43'64178.5
2018-Apr-18 00:31N 45°14' E 019°25'61765.5
2018-Apr-18 00:26N 44°44' E 020°40'61145.1
2018-Apr-18 00:01N 45°14' E 019°25'58209676.8
2018-Apr-18 00:00N 44°46' E 020°38'58116.6
2018-Apr-17 23:31N 45°14' E 019°25'576875.3
2018-Apr-17 23:30N 44°50' E 020°39'57116.6
2018-Apr-17 23:01N 45°14' E 019°25'548844.0
2018-Apr-17 23:00N 44°51' E 020°34'54109.4
2018-Apr-17 22:31N 45°14' E 019°25'51185272.4
2018-Apr-17 22:30N 44°50' E 020°29'4 7.6
2018-Apr-17 22:00N 44°51' E 020°24'48171669.8
2018-Apr-17 22:00N 45°14' E 019°25'1 1.5
2018-Apr-17 21:31N 45°14' E 019°26'44156934.9
2018-Apr-17 21:31N 44°54' E 020°21'4 7.6
2018-Apr-17 21:00N 44°57' E 020°18'3 6.4
2018-Apr-17 20:30N 44°60' E 020°20'3 6.2
2018-Apr-17 20:00N 45°03' E 020°21'4 7.6
2018-Apr-17 19:30N 45°06' E 020°18'4 7.4
2018-Apr-17 19:00N 45°09' E 020°16'26330.5
2018-Apr-17 18:56N 45°13' E 019°39'2355.8
2018-Apr-17 18:30N 45°11' E 020°12'2215670.3
2018-Apr-17 18:30N 45°14' E 019°41'2 4.4
2018-Apr-17 18:00N 45°14' E 019°44'166508.4
2018-Apr-17 18:00N 45°10' E 020°07'1428.2
2018-Apr-17 17:30N 45°13' E 019°47'1037469.4
2018-Apr-17 17:30N 45°10' E 020°02'917.0
2018-Apr-17 17:00N 45°14' E 019°50'517955.0
2018-Apr-17 17:00N 45°12' E 019°57'510.5
2018-Apr-17 16:31N 45°15' E 019°51'22642.2
2018-Apr-17 16:30N 45°15' E 019°55'1 1.8
2018-Apr-17 16:01N 45°15' E 019°53'25886.5
2018-Apr-17 16:00N 45°14' E 019°52'2 3.3
2018-Apr-17 15:31N 45°15' E 019°53'52570.9
2018-Apr-17 15:30N 45°13' E 019°47'611.1
2018-Apr-17 15:01N 45°15' E 019°54'92928.5
2018-Apr-17 15:00N 45°14' E 019°42'1020.2
2018-Apr-17 14:30N 45°13' E 019°56'1555.3
2018-Apr-17 14:14N 45°13' E 019°34'1777.8
2018-Apr-17 14:01N 45°11' E 019°58'18528.5
2018-Apr-17 13:58N 45°15' E 019°33'2043.4
2018-Apr-17 13:31N 45°10' E 020°01'24159.6
2018-Apr-17 13:21N 45°14' E 019°27'2776.2
2018-Apr-17 13:01N 45°10' E 020°05'2913067.8
2018-Apr-17 13:00N 45°14' E 019°24'3162.8
2018-Apr-17 12:30N 45°10' E 020°08'3511468.0
2018-Apr-17 12:30N 45°14' E 019°18'3774.7
2018-Apr-17 12:01N 45°11' E 020°11'411155.1
2018-Apr-17 11:58N 45°15' E 019°13'4393.1
2018-Apr-17 11:31N 45°10' E 020°14'4755860.7
2018-Apr-17 11:30N 45°17' E 019°08'3 6.8
2018-Apr-17 11:00N 45°20' E 019°06'51320.4
2018-Apr-17 10:51N 45°08' E 020°17'55162.0
2018-Apr-17 10:30N 45°21' E 019°01'5610607.8
2018-Apr-17 10:30N 45°06' E 020°18'58117.9
2018-Apr-17 10:00N 45°24' E 018°59'60396.7
2018-Apr-17 09:51N 45°04' E 020°20'1 4.3
2018-Apr-17 09:31N 45°03' E 020°21'61218374.8
2018-Apr-17 09:30N 45°26' E 019°01'62124.0
2018-Apr-17 09:01N 45°01' E 020°22'64231699.5
2018-Apr-17 09:00N 45°29' E 018°59'64127.1
2018-Apr-17 08:31N 44°60' E 020°20'619996.9
2018-Apr-17 08:30N 45°29' E 019°04'60121.8
2018-Apr-17 08:01N 44°59' E 020°18'6031088.2
2018-Apr-17 08:00N 45°31' E 019°05'62123.9
2018-Apr-17 07:31N 44°57' E 020°18'65116960.1
2018-Apr-17 07:30N 45°33' E 019°01'67134.0
2018-Apr-17 07:01N 44°55' E 020°20'69123920.1
2018-Apr-17 07:00N 45°32' E 018°57'3 6.8
2018-Apr-17 06:30N 45°34' E 018°53'7444545.6
2018-Apr-17 06:30N 44°53' E 020°21'75150.6
2018-Apr-17 06:00N 45°37' E 018°55'7725305.7
2018-Apr-17 06:00N 44°52' E 020°23'2 4.6
2018-Apr-17 05:30N 44°51' E 020°26'2 4.5
2018-Apr-17 05:00N 44°50' E 020°29'85305964.2
2018-Apr-17 05:00N 45°42' E 018°54'86173.1
2018-Apr-17 04:30N 44°50' E 020°32'89321374.5
2018-Apr-17 04:30N 45°46' E 018°53'90180.4
2018-Apr-17 04:00N 44°51' E 020°35'9383990.0
2018-Apr-17 04:00N 45°49' E 018°51'95190.0
2018-Apr-17 03:30N 44°51' E 020°38'9519084.1
2018-Apr-17 03:30N 45°50' E 018°52'0 0.0
2018-Apr-17 03:00N 45°50' E 018°52'95343569.2
2018-Apr-17 03:00N 44°51' E 020°38'95191.9
2018-Apr-17 02:30N 45°50' E 018°52'9531233.6
2018-Apr-17 02:30N 44°51' E 020°38'0 0.0
2018-Apr-17 02:00N 44°51' E 020°38'952021.0
2018-Apr-17 01:58N 45°50' E 018°52'0 0.0
2018-Apr-17 01:30N 45°50' E 018°52'95343569.2
2018-Apr-17 01:30N 44°51' E 020°38'0 0.0
2018-Apr-17 01:00N 44°51' E 020°38'9517179.1
2018-Apr-17 01:00N 45°50' E 018°52'95193.0
2018-Apr-17 00:30N 44°51' E 020°38'95343582.8
2018-Apr-17 00:30N 45°50' E 018°52'0 0.7
2018-Apr-17 00:00N 45°51' E 018°51'96344448.0
2018-Apr-17 00:00N 44°51' E 020°38'0 0.0
2018-Apr-16 23:30N 44°51' E 020°38'9812163.3
2018-Apr-16 23:30N 45°53' E 018°50'98199.2
2018-Apr-16 23:00N 44°51' E 020°38'0 0.0
2018-Apr-16 22:30N 44°51' E 020°38'0 0.0
2018-Apr-16 22:00N 44°51' E 020°38'0 0.0
2018-Apr-16 21:30N 44°51' E 020°38'0 0.0
2018-Apr-16 21:00N 44°51' E 020°38'0 0.1
2018-Apr-16 20:30N 44°51' E 020°38'0 0.0
2018-Apr-16 20:00N 44°51' E 020°38'0 0.8
2018-Apr-16 19:30N 44°51' E 020°38'3 5.1
2018-Apr-16 19:00N 44°48' E 020°38'3 5.7
2018-Apr-16 18:30N 44°45' E 020°38'3 5.4
2018-Apr-16 18:01N 44°44' E 020°41'3 5.5
2018-Apr-16 17:30N 44°41' E 020°43'3 5.6
2018-Apr-16 17:00N 44°40' E 020°47'3 5.1
2018-Apr-16 16:30N 44°39' E 020°50'3 5.4
2018-Apr-16 16:00N 44°40' E 020°54'1 2.0
2018-Apr-16 15:30N 44°40' E 020°55'0 0.0
2018-Apr-16 15:01N 44°40' E 020°55'0 0.0
2018-Apr-16 14:31N 44°40' E 020°55'0 0.0
2018-Apr-16 14:01N 44°40' E 020°55'0 0.0
2018-Apr-16 13:31N 44°40' E 020°55'0 0.0
2018-Apr-16 13:00N 44°40' E 020°55'0 0.0
2018-Apr-16 12:30N 44°40' E 020°55'2 3.6
2018-Apr-16 12:00N 44°41' E 020°57'0 0.6
2018-Apr-16 11:30N 44°42' E 020°57'0 0.0
2018-Apr-16 11:00N 44°42' E 020°57'0 0.0
2018-Apr-16 10:31N 44°42' E 020°57'0 0.0
2018-Apr-16 10:00N 44°42' E 020°57'0 0.0
2018-Apr-16 09:31N 44°42' E 020°57'0 0.0
2018-Apr-16 09:00N 44°42' E 020°57'176447.7
2018-Apr-16 08:37N 47°16' E 018°55'1761712.2
2018-Apr-16 08:30N 44°42' E 020°57'1775911.4
2018-Apr-16 08:29N 47°17' E 018°55'177376.2
2018-Apr-16 08:00N 44°42' E 020°57'0 0.0
2018-Apr-16 07:31N 44°42' E 020°57'17758.7
2018-Apr-16 04:29N 47°17' E 018°55'17724.5
2018-Apr-15 21:14N 44°42' E 020°57'0 0.0
2018-Apr-15 21:00N 44°42' E 020°57'0 0.0
2018-Apr-15 20:02N 44°42' E 020°57'0 0.0
2018-Apr-15 20:00N 44°42' E 020°57'0 0.0
2018-Apr-15 19:30N 44°42' E 020°57'0 0.0
2018-Apr-15 19:00N 44°42' E 020°57'0 0.0
2018-Apr-15 18:30N 44°42' E 020°57'0 0.0
2018-Apr-15 18:00N 44°42' E 020°57'0 0.0
2018-Apr-15 17:30N 44°42' E 020°57'0 0.0
2018-Apr-15 17:00N 44°42' E 020°57'0 0.0
2018-Apr-15 16:30N 44°42' E 020°57'0 0.0
2018-Apr-15 16:01N 44°42' E 020°57'0 0.0
2018-Apr-15 15:30N 44°42' E 020°57'0 0.0
2018-Apr-15 15:00N 44°42' E 020°57'0 0.0
2018-Apr-15 14:30N 44°42' E 020°57'0 0.0
2018-Apr-15 14:00N 44°42' E 020°57'0 0.0
2018-Apr-15 13:31N 44°42' E 020°57'0 0.0
2018-Apr-15 13:00N 44°42' E 020°57'0 0.0
2018-Apr-15 12:31N 44°42' E 020°57'3 5.8
2018-Apr-15 12:01N 44°40' E 020°54'4 8.6
2018-Apr-15 11:30N 44°39' E 020°48'4 8.3
2018-Apr-15 11:00N 44°41' E 020°43'4 8.4
2018-Apr-15 10:31N 44°45' E 020°39'4 7.7
2018-Apr-15 10:01N 44°48' E 020°38'3 5.0
2018-Apr-15 09:30N 44°51' E 020°38'1 2.1
2018-Apr-15 09:00N 44°51' E 020°36'3 6.6
2018-Apr-15 08:30N 44°50' E 020°32'1 1.6
2018-Apr-15 08:00N 44°49' E 020°31'0 0.0
2018-Apr-15 07:31N 44°49' E 020°31'0 0.0
2018-Apr-15 07:00N 44°49' E 020°31'0 0.0
2018-Apr-15 06:30N 44°49' E 020°31'0 0.0
2018-Apr-15 06:00N 44°49' E 020°31'0 0.0
2018-Apr-15 05:30N 44°49' E 020°31'0 0.0
2018-Apr-15 05:01N 44°49' E 020°31'0 0.0
2018-Apr-15 04:30N 44°49' E 020°31'162342.1
2018-Apr-15 04:02N 47°17' E 018°55'1625725.5
2018-Apr-15 04:00N 44°49' E 020°31'1621333.3
2018-Apr-15 03:53N 47°17' E 018°55'162431.6
2018-Apr-15 03:30N 44°49' E 020°31'162592.9
2018-Apr-15 03:14N 47°17' E 018°55'162717.4
2018-Apr-15 03:00N 44°49' E 020°31'162929.9
2018-Apr-15 02:50N 47°17' E 018°55'162498.3
2018-Apr-15 02:30N 44°49' E 020°31'0 0.0
2018-Apr-15 02:00N 44°49' E 020°31'0 0.0
2018-Apr-15 01:30N 44°49' E 020°31'0 0.0
2018-Apr-15 01:00N 44°49' E 020°31'0 0.0
2018-Apr-15 00:30N 44°49' E 020°31'0 0.0
2018-Apr-15 00:00N 44°49' E 020°31'0 0.0
2018-Apr-14 23:30N 44°49' E 020°31'0 0.0
2018-Apr-14 23:00N 44°49' E 020°31'0 0.0
2018-Apr-14 22:30N 44°49' E 020°31'0 0.0
2018-Apr-14 22:00N 44°49' E 020°31'0 0.0
2018-Apr-14 21:30N 44°49' E 020°31'0 0.0
2018-Apr-14 21:00N 44°49' E 020°31'0 0.0
2018-Apr-14 20:30N 44°49' E 020°31'0 0.0
2018-Apr-14 20:00N 44°49' E 020°31'0 0.0
2018-Apr-14 19:30N 44°49' E 020°31'0 0.0
2018-Apr-14 19:00N 44°49' E 020°31'0 0.0
2018-Apr-14 18:30N 44°49' E 020°31'0 0.0
2018-Apr-14 18:01N 44°49' E 020°31'0 0.0
2018-Apr-14 17:30N 44°49' E 020°31'0 0.0
2018-Apr-14 17:00N 44°49' E 020°31'0 0.0
2018-Apr-14 16:30N 44°49' E 020°31'0 0.0
2018-Apr-14 16:00N 44°49' E 020°31'0 0.0
2018-Apr-14 15:30N 44°49' E 020°31'0 0.0
2018-Apr-14 15:00N 44°49' E 020°31'0 0.0
2018-Apr-14 14:30N 44°49' E 020°31'0 0.0
2018-Apr-14 14:00N 44°49' E 020°31'0 0.0
2018-Apr-14 13:30N 44°49' E 020°31'0 0.0
2018-Apr-14 13:00N 44°49' E 020°31'0 0.0
2018-Apr-14 12:30N 44°49' E 020°31'0 0.0
2018-Apr-14 12:00N 44°49' E 020°31'0 0.0
2018-Apr-14 11:30N 44°49' E 020°31'0 0.0
2018-Apr-14 11:00N 44°49' E 020°31'0 0.0
2018-Apr-14 10:30N 44°49' E 020°31'0 0.0
2018-Apr-14 10:00N 44°49' E 020°31'0 0.0
2018-Apr-14 09:30N 44°49' E 020°31'0 0.1
2018-Apr-14 09:00N 44°50' E 020°31'2 4.1
2018-Apr-14 08:30N 44°50' E 020°28'0 0.4
2018-Apr-14 08:00N 44°50' E 020°28'0 0.0
2018-Apr-14 07:30N 44°50' E 020°28'0 0.1
2018-Apr-14 07:00N 44°50' E 020°28'0 0.4
2018-Apr-14 06:30N 44°50' E 020°29'0 0.1
2018-Apr-14 06:00N 44°50' E 020°29'1 1.3
2018-Apr-14 05:30N 44°50' E 020°28'3 5.5
2018-Apr-14 05:00N 44°51' E 020°24'3 6.5
2018-Apr-14 04:30N 44°54' E 020°21'3 6.8
2018-Apr-14 04:00N 44°56' E 020°18'3 5.9
2018-Apr-14 03:30N 44°59' E 020°18'0 0.0
2018-Apr-14 03:00N 44°59' E 020°18'0 0.0
2018-Apr-14 02:31N 44°59' E 020°18'0 0.0
2018-Apr-14 02:00N 44°59' E 020°18'0 0.0
2018-Apr-14 01:30N 44°59' E 020°18'0 0.0
2018-Apr-14 01:01N 44°59' E 020°18'0 0.0
2018-Apr-14 00:31N 44°59' E 020°18'0 0.0
2018-Apr-14 00:00N 44°59' E 020°18'0 0.0
2018-Apr-13 23:30N 44°59' E 020°18'0 0.0
2018-Apr-13 23:01N 44°59' E 020°18'0 0.6
2018-Apr-13 22:30N 44°60' E 020°18'3 6.0
2018-Apr-13 22:00N 45°01' E 020°22'3 6.5
2018-Apr-13 21:30N 45°04' E 020°21'4 6.9
2018-Apr-13 20:59N 45°07' E 020°18'3 6.4
2018-Apr-13 20:30N 45°09' E 020°15'2 4.8
2018-Apr-13 20:00N 45°11' E 020°12'3 5.4
2018-Apr-13 19:30N 45°10' E 020°08'3 6.5
2018-Apr-13 19:00N 45°10' E 020°04'3 6.3
2018-Apr-13 18:30N 45°11' E 019°59'3 6.2
2018-Apr-13 18:01N 45°13' E 019°56'3 6.3
2018-Apr-13 17:31N 45°15' E 019°54'2 4.2
2018-Apr-13 17:01N 45°14' E 019°51'3 6.1
2018-Apr-13 16:30N 45°13' E 019°47'3 6.4
2018-Apr-13 16:01N 45°14' E 019°43'11 5.5
2018-Apr-13 14:04N 45°14' E 019°27'1 6.6
2018-Apr-13 14:00N 45°14' E 019°27'3 6.9
2018-Apr-13 13:30N 45°14' E 019°22'3 6.7
2018-Apr-13 13:00N 45°14' E 019°17'4 7.1
2018-Apr-13 12:29N 45°16' E 019°12'3 6.8
2018-Apr-13 12:00N 45°17' E 019°08'3 6.1
2018-Apr-13 11:30N 45°20' E 019°06'3 6.4
2018-Apr-13 11:00N 45°21' E 019°02'3 6.7
2018-Apr-13 10:30N 45°23' E 018°58'7 4.7
2018-Apr-13 09:01N 45°30' E 019°01'3 6.3
2018-Apr-13 08:31N 45°29' E 019°05'3 5.3
2018-Apr-13 08:01N 45°32' E 019°04'3 5.5
2018-Apr-13 07:31N 45°33' E 019°01'3 6.3
2018-Apr-13 07:01N 45°32' E 018°57'3 6.3
2018-Apr-13 06:30N 45°34' E 018°53'103658.8
2018-Apr-13 06:21N 47°17' E 018°55'101293.7
2018-Apr-13 06:01N 45°37' E 018°54'10112936.2
2018-Apr-13 06:00N 47°17' E 018°55'98199.8
2018-Apr-13 05:31N 45°39' E 018°57'3 5.0
2018-Apr-13 05:01N 45°41' E 018°56'3 6.5
2018-Apr-13 04:31N 45°44' E 018°54'3 6.2
2018-Apr-13 04:00N 45°47' E 018°52'3 6.1
2018-Apr-13 03:30N 45°50' E 018°51'0 0.7
2018-Apr-13 03:00N 45°51' E 018°52'0 0.0
2018-Apr-13 02:28N 45°51' E 018°52'0 0.0
2018-Apr-13 02:01N 45°51' E 018°52'0 0.0
2018-Apr-13 01:30N 45°51' E 018°52'0 0.0
2018-Apr-13 00:57N 45°51' E 018°52'0 0.0
2018-Apr-13 00:24N 45°51' E 018°52'0 0.0
2018-Apr-12 23:57N 45°51' E 018°52'0 0.0
2018-Apr-12 23:30N 45°51' E 018°52'0 0.0
2018-Apr-12 22:58N 45°51' E 018°52'0 0.0
2018-Apr-12 22:26N 45°51' E 018°52'0 0.0
2018-Apr-12 21:47N 45°51' E 018°52'0 0.0
2018-Apr-12 21:25N 45°51' E 018°52'0 0.0
2018-Apr-12 21:00N 45°51' E 018°52'0 0.0
2018-Apr-12 20:28N 45°51' E 018°52'0 0.0
2018-Apr-12 19:58N 45°51' E 018°52'0 0.0
2018-Apr-12 19:29N 45°51' E 018°52'0 0.0
2018-Apr-12 19:00N 45°51' E 018°52'0 0.9
2018-Apr-12 18:30N 45°51' E 018°51'8713.9
2018-Apr-12 12:16N 47°17' E 018°55'0 0.0
2018-Apr-12 04:06N 47°17' E 018°55'0 0.0
2018-Apr-11 18:24N 47°17' E 018°55'79 3.6
2018-Apr-10 20:15N 45°59' E 018°44'2 5.8
2018-Apr-10 19:59N 45°58' E 018°45'3 5.7
2018-Apr-10 19:30N 45°55' E 018°47'3 5.5
2018-Apr-10 18:56N 45°53' E 018°50'2 5.1
2018-Apr-10 18:30N 45°51' E 018°51'0 0.7
2018-Apr-10 17:57N 45°50' E 018°52'0 0.0
2018-Apr-10 17:29N 45°50' E 018°52'0 0.0
2018-Apr-10 16:53N 45°50' E 018°52'0 0.0
2018-Apr-10 16:28N 45°50' E 018°52'0 0.0
2018-Apr-10 15:57N 45°50' E 018°52'2 4.2
2018-Apr-10 15:30N 45°49' E 018°51'2 4.7
2018-Apr-10 15:00N 45°47' E 018°53'3 5.1
2018-Apr-10 14:30N 45°44' E 018°54'3 5.4
2018-Apr-10 14:00N 45°42' E 018°55'3 5.4
2018-Apr-10 13:30N 45°40' E 018°58'3 5.1
2018-Apr-10 13:00N 45°38' E 018°56'2 3.2
2018-Apr-10 12:30N 45°37' E 018°54'3 5.0
2018-Apr-10 12:01N 45°35' E 018°53'2 4.8
2018-Apr-10 11:31N 45°33' E 018°56'2 4.8
2018-Apr-10 11:00N 45°32' E 018°59'2 4.0
2018-Apr-10 10:31N 45°33' E 019°02'2 4.6
2018-Apr-10 10:01N 45°32' E 019°04'2 4.4
2018-Apr-10 09:31N 45°30' E 019°06'3 5.3
2018-Apr-10 09:01N 45°29' E 019°02'2 4.0
2018-Apr-10 08:31N 45°29' E 018°59'3 5.3
2018-Apr-10 08:01N 45°26' E 018°60'2 4.5
2018-Apr-10 07:31N 45°24' E 019°02'2 5.0
2018-Apr-10 07:01N 45°23' E 018°58'3 5.0
2018-Apr-10 06:30N 45°21' E 019°00'3 5.3
2018-Apr-10 06:01N 45°21' E 019°04'2 4.6
2018-Apr-10 05:31N 45°19' E 019°06'2 4.0
2018-Apr-10 05:00N 45°17' E 019°08'2 4.9
2018-Apr-10 04:30N 45°16' E 019°11'3 5.1
2018-Apr-10 04:00N 45°15' E 019°14'3 5.1
2018-Apr-10 03:30N 45°14' E 019°18'3 5.5
2018-Apr-10 03:00N 45°14' E 019°21'3 5.3
2018-Apr-10 02:30N 45°14' E 019°25'3 5.4
2018-Apr-10 01:52N 45°15' E 019°30'2 5.3
2018-Apr-10 01:30N 45°15' E 019°33'  

Dump ship's entire track history